sensor_id;sensor_type;location;lat;lon;timestamp;P1;durP1;ratioP1;P2;durP2;ratioP2
11827;SDS011;5971;49.646;8.568;2023-05-25T00:00:43;6.85;;;2.60;;
11827;SDS011;5971;49.646;8.568;2023-05-25T00:04:01;8.55;;;3.13;;
11827;SDS011;5971;49.646;8.568;2023-05-25T00:07:04;4.80;;;2.08;;
11827;SDS011;5971;49.646;8.568;2023-05-25T00:10:06;9.05;;;2.60;;
11827;SDS011;5971;49.646;8.568;2023-05-25T00:13:07;7.90;;;2.67;;
11827;SDS011;5971;49.646;8.568;2023-05-25T00:16:10;6.53;;;2.60;;
11827;SDS011;5971;49.646;8.568;2023-05-25T00:19:11;9.88;;;2.90;;
11827;SDS011;5971;49.646;8.568;2023-05-25T00:22:13;6.07;;;3.47;;
11827;SDS011;5971;49.646;8.568;2023-05-25T00:25:14;6.40;;;2.60;;
11827;SDS011;5971;49.646;8.568;2023-05-25T00:28:15;8.02;;;2.40;;
11827;SDS011;5971;49.646;8.568;2023-05-25T00:31:17;5.20;;;2.47;;
11827;SDS011;5971;49.646;8.568;2023-05-25T00:34:18;6.72;;;2.42;;
11827;SDS011;5971;49.646;8.568;2023-05-25T00:37:20;6.82;;;2.35;;
11827;SDS011;5971;49.646;8.568;2023-05-25T00:40:21;6.95;;;2.67;;
11827;SDS011;5971;49.646;8.568;2023-05-25T00:43:22;8.18;;;3.38;;
11827;SDS011;5971;49.646;8.568;2023-05-25T00:46:24;6.00;;;3.17;;
11827;SDS011;5971;49.646;8.568;2023-05-25T00:49:32;7.03;;;2.88;;
11827;SDS011;5971;49.646;8.568;2023-05-25T00:52:34;6.57;;;2.50;;
11827;SDS011;5971;49.646;8.568;2023-05-25T00:55:36;6.82;;;3.03;;
11827;SDS011;5971;49.646;8.568;2023-05-25T00:58:39;8.27;;;2.60;;
11827;SDS011;5971;49.646;8.568;2023-05-25T01:01:42;6.97;;;3.20;;
11827;SDS011;5971;49.646;8.568;2023-05-25T01:04:49;8.23;;;2.60;;
11827;SDS011;5971;49.646;8.568;2023-05-25T01:07:52;7.85;;;3.15;;
11827;SDS011;5971;49.646;8.568;2023-05-25T01:10:55;6.55;;;2.70;;
11827;SDS011;5971;49.646;8.568;2023-05-25T01:13:57;5.72;;;3.08;;
11827;SDS011;5971;49.646;8.568;2023-05-25T01:16:58;7.30;;;4.40;;
11827;SDS011;5971;49.646;8.568;2023-05-25T01:20:00;9.07;;;3.20;;
11827;SDS011;5971;49.646;8.568;2023-05-25T01:23:11;6.50;;;2.88;;
11827;SDS011;5971;49.646;8.568;2023-05-25T01:26:15;6.10;;;2.25;;
11827;SDS011;5971;49.646;8.568;2023-05-25T01:29:18;8.30;;;3.22;;
11827;SDS011;5971;49.646;8.568;2023-05-25T01:32:19;5.53;;;2.22;;
11827;SDS011;5971;49.646;8.568;2023-05-25T01:35:21;6.07;;;2.72;;
11827;SDS011;5971;49.646;8.568;2023-05-25T01:38:23;7.65;;;2.35;;
11827;SDS011;5971;49.646;8.568;2023-05-25T01:41:25;5.80;;;2.67;;
11827;SDS011;5971;49.646;8.568;2023-05-25T01:44:27;4.68;;;2.35;;
11827;SDS011;5971;49.646;8.568;2023-05-25T01:47:31;6.60;;;3.25;;
11827;SDS011;5971;49.646;8.568;2023-05-25T01:50:44;6.95;;;2.80;;
11827;SDS011;5971;49.646;8.568;2023-05-25T01:53:53;5.85;;;2.75;;
11827;SDS011;5971;49.646;8.568;2023-05-25T01:56:57;4.63;;;2.45;;
11827;SDS011;5971;49.646;8.568;2023-05-25T01:59:59;7.22;;;2.58;;
11827;SDS011;5971;49.646;8.568;2023-05-25T02:03:03;8.65;;;2.30;;
11827;SDS011;5971;49.646;8.568;2023-05-25T02:06:04;5.90;;;2.47;;
11827;SDS011;5971;49.646;8.568;2023-05-25T02:09:06;9.10;;;3.00;;
11827;SDS011;5971;49.646;8.568;2023-05-25T02:12:07;5.55;;;3.13;;
11827;SDS011;5971;49.646;8.568;2023-05-25T02:15:09;7.20;;;2.70;;
11827;SDS011;5971;49.646;8.568;2023-05-25T02:18:10;5.43;;;3.33;;
11827;SDS011;5971;49.646;8.568;2023-05-25T02:21:13;6.72;;;2.85;;
11827;SDS011;5971;49.646;8.568;2023-05-25T02:24:15;6.32;;;2.50;;
11827;SDS011;5971;49.646;8.568;2023-05-25T02:27:16;9.38;;;2.67;;
11827;SDS011;5971;49.646;8.568;2023-05-25T02:30:17;7.28;;;2.97;;
11827;SDS011;5971;49.646;8.568;2023-05-25T02:33:19;5.53;;;2.95;;
11827;SDS011;5971;49.646;8.568;2023-05-25T02:36:20;5.40;;;3.17;;
11827;SDS011;5971;49.646;8.568;2023-05-25T02:39:22;6.20;;;3.38;;
11827;SDS011;5971;49.646;8.568;2023-05-25T02:42:24;6.35;;;4.38;;
11827;SDS011;5971;49.646;8.568;2023-05-25T02:45:25;7.28;;;2.88;;
11827;SDS011;5971;49.646;8.568;2023-05-25T02:48:27;7.22;;;2.97;;
11827;SDS011;5971;49.646;8.568;2023-05-25T02:51:28;6.80;;;2.80;;
11827;SDS011;5971;49.646;8.568;2023-05-25T02:54:29;6.15;;;2.58;;
11827;SDS011;5971;49.646;8.568;2023-05-25T02:57:31;6.32;;;2.85;;
11827;SDS011;5971;49.646;8.568;2023-05-25T03:00:32;6.75;;;2.90;;
11827;SDS011;5971;49.646;8.568;2023-05-25T03:03:34;7.57;;;3.22;;
11827;SDS011;5971;49.646;8.568;2023-05-25T03:06:35;7.57;;;2.78;;
11827;SDS011;5971;49.646;8.568;2023-05-25T03:09:38;6.60;;;3.17;;
11827;SDS011;5971;49.646;8.568;2023-05-25T03:12:39;7.97;;;4.22;;
11827;SDS011;5971;49.646;8.568;2023-05-25T03:15:40;7.13;;;3.20;;
11827;SDS011;5971;49.646;8.568;2023-05-25T03:18:42;10.35;;;4.03;;
11827;SDS011;5971;49.646;8.568;2023-05-25T03:21:43;10.40;;;2.70;;
11827;SDS011;5971;49.646;8.568;2023-05-25T03:24:45;5.55;;;3.78;;
11827;SDS011;5971;49.646;8.568;2023-05-25T03:27:46;8.00;;;3.10;;
11827;SDS011;5971;49.646;8.568;2023-05-25T03:30:48;5.55;;;2.63;;
11827;SDS011;5971;49.646;8.568;2023-05-25T03:33:49;7.65;;;2.72;;
11827;SDS011;5971;49.646;8.568;2023-05-25T03:36:50;5.95;;;2.75;;
11827;SDS011;5971;49.646;8.568;2023-05-25T03:39:53;7.10;;;2.80;;
11827;SDS011;5971;49.646;8.568;2023-05-25T03:42:54;7.60;;;2.70;;
11827;SDS011;5971;49.646;8.568;2023-05-25T03:45:56;6.57;;;3.08;;
11827;SDS011;5971;49.646;8.568;2023-05-25T03:48:57;6.93;;;3.00;;
11827;SDS011;5971;49.646;8.568;2023-05-25T03:51:59;9.95;;;3.78;;
11827;SDS011;5971;49.646;8.568;2023-05-25T03:55:01;5.78;;;2.33;;
11827;SDS011;5971;49.646;8.568;2023-05-25T03:58:04;9.02;;;2.63;;
11827;SDS011;5971;49.646;8.568;2023-05-25T04:01:05;8.55;;;4.07;;
11827;SDS011;5971;49.646;8.568;2023-05-25T04:04:09;9.80;;;2.83;;
11827;SDS011;5971;49.646;8.568;2023-05-25T04:07:11;7.75;;;2.85;;
11827;SDS011;5971;49.646;8.568;2023-05-25T04:10:12;9.20;;;2.47;;
11827;SDS011;5971;49.646;8.568;2023-05-25T04:13:14;5.05;;;3.05;;
11827;SDS011;5971;49.646;8.568;2023-05-25T04:16:15;10.18;;;3.58;;
11827;SDS011;5971;49.646;8.568;2023-05-25T04:19:17;8.27;;;3.05;;
11827;SDS011;5971;49.646;8.568;2023-05-25T04:22:18;7.80;;;2.63;;
11827;SDS011;5971;49.646;8.568;2023-05-25T04:25:19;7.15;;;2.70;;
11827;SDS011;5971;49.646;8.568;2023-05-25T04:28:20;7.35;;;2.75;;
11827;SDS011;5971;49.646;8.568;2023-05-25T04:31:23;8.10;;;3.10;;
11827;SDS011;5971;49.646;8.568;2023-05-25T04:34:27;8.15;;;2.47;;
11827;SDS011;5971;49.646;8.568;2023-05-25T04:37:29;6.75;;;2.83;;
11827;SDS011;5971;49.646;8.568;2023-05-25T04:40:33;7.18;;;2.90;;
11827;SDS011;5971;49.646;8.568;2023-05-25T04:43:35;6.43;;;2.88;;
11827;SDS011;5971;49.646;8.568;2023-05-25T04:46:36;6.22;;;2.45;;
11827;SDS011;5971;49.646;8.568;2023-05-25T04:49:39;7.07;;;3.08;;
11827;SDS011;5971;49.646;8.568;2023-05-25T04:52:40;6.47;;;2.78;;
11827;SDS011;5971;49.646;8.568;2023-05-25T04:55:42;7.38;;;2.58;;
11827;SDS011;5971;49.646;8.568;2023-05-25T04:58:43;5.25;;;2.53;;
11827;SDS011;5971;49.646;8.568;2023-05-25T05:01:45;8.07;;;2.47;;
11827;SDS011;5971;49.646;8.568;2023-05-25T05:04:46;6.15;;;2.35;;
11827;SDS011;5971;49.646;8.568;2023-05-25T05:07:47;6.18;;;2.50;;
11827;SDS011;5971;49.646;8.568;2023-05-25T05:10:49;8.80;;;3.17;;
11827;SDS011;5971;49.646;8.568;2023-05-25T05:13:50;5.72;;;2.38;;
11827;SDS011;5971;49.646;8.568;2023-05-25T05:16:51;7.65;;;3.55;;
11827;SDS011;5971;49.646;8.568;2023-05-25T05:19:53;7.05;;;3.45;;
11827;SDS011;5971;49.646;8.568;2023-05-25T05:22:54;10.13;;;2.50;;
11827;SDS011;5971;49.646;8.568;2023-05-25T05:25:55;6.00;;;3.28;;
11827;SDS011;5971;49.646;8.568;2023-05-25T05:28:57;6.20;;;2.53;;
11827;SDS011;5971;49.646;8.568;2023-05-25T05:31:59;5.82;;;3.17;;
11827;SDS011;5971;49.646;8.568;2023-05-25T05:35:00;7.13;;;3.08;;
11827;SDS011;5971;49.646;8.568;2023-05-25T05:38:01;7.05;;;3.08;;
11827;SDS011;5971;49.646;8.568;2023-05-25T05:41:03;6.05;;;3.42;;
11827;SDS011;5971;49.646;8.568;2023-05-25T05:44:08;7.13;;;2.45;;
11827;SDS011;5971;49.646;8.568;2023-05-25T05:47:09;6.70;;;2.50;;
11827;SDS011;5971;49.646;8.568;2023-05-25T05:50:10;6.47;;;3.03;;
11827;SDS011;5971;49.646;8.568;2023-05-25T05:53:12;5.18;;;2.42;;
11827;SDS011;5971;49.646;8.568;2023-05-25T05:56:16;7.40;;;3.20;;
11827;SDS011;5971;49.646;8.568;2023-05-25T05:59:19;6.93;;;3.30;;
11827;SDS011;5971;49.646;8.568;2023-05-25T06:02:21;6.50;;;2.92;;
11827;SDS011;5971;49.646;8.568;2023-05-25T06:05:23;7.30;;;3.30;;
11827;SDS011;5971;49.646;8.568;2023-05-25T06:08:24;5.28;;;1.85;;
11827;SDS011;5971;49.646;8.568;2023-05-25T06:11:26;7.38;;;2.92;;
11827;SDS011;5971;49.646;8.568;2023-05-25T06:14:27;4.75;;;2.92;;
11827;SDS011;5971;49.646;8.568;2023-05-25T06:17:29;5.60;;;3.28;;
11827;SDS011;5971;49.646;8.568;2023-05-25T06:20:30;6.32;;;2.97;;
11827;SDS011;5971;49.646;8.568;2023-05-25T06:23:32;5.55;;;3.05;;
11827;SDS011;5971;49.646;8.568;2023-05-25T06:26:33;6.03;;;3.17;;
11827;SDS011;5971;49.646;8.568;2023-05-25T06:29:34;5.95;;;3.20;;
11827;SDS011;5971;49.646;8.568;2023-05-25T06:32:36;6.45;;;3.08;;
11827;SDS011;5971;49.646;8.568;2023-05-25T06:35:37;4.93;;;2.58;;
11827;SDS011;5971;49.646;8.568;2023-05-25T06:38:38;5.68;;;2.15;;
11827;SDS011;5971;49.646;8.568;2023-05-25T06:41:40;5.10;;;3.10;;
11827;SDS011;5971;49.646;8.568;2023-05-25T06:44:41;6.13;;;2.30;;
11827;SDS011;5971;49.646;8.568;2023-05-25T06:47:42;5.25;;;2.60;;
11827;SDS011;5971;49.646;8.568;2023-05-25T06:50:44;4.57;;;2.20;;
11827;SDS011;5971;49.646;8.568;2023-05-25T06:53:46;6.00;;;2.60;;
11827;SDS011;5971;49.646;8.568;2023-05-25T06:56:47;3.85;;;2.10;;
11827;SDS011;5971;49.646;8.568;2023-05-25T06:59:49;4.85;;;2.15;;
11827;SDS011;5971;49.646;8.568;2023-05-25T07:02:50;6.50;;;2.50;;
11827;SDS011;5971;49.646;8.568;2023-05-25T07:05:52;5.22;;;1.95;;
11827;SDS011;5971;49.646;8.568;2023-05-25T07:08:53;5.47;;;1.90;;
11827;SDS011;5971;49.646;8.568;2023-05-25T07:11:55;6.07;;;2.70;;
11827;SDS011;5971;49.646;8.568;2023-05-25T07:14:57;7.22;;;2.20;;
11827;SDS011;5971;49.646;8.568;2023-05-25T07:17:58;5.95;;;2.33;;
11827;SDS011;5971;49.646;8.568;2023-05-25T07:21:00;5.45;;;2.22;;
11827;SDS011;5971;49.646;8.568;2023-05-25T07:24:01;5.75;;;2.70;;
11827;SDS011;5971;49.646;8.568;2023-05-25T07:27:03;5.20;;;2.45;;
11827;SDS011;5971;49.646;8.568;2023-05-25T07:30:04;5.50;;;2.30;;
11827;SDS011;5971;49.646;8.568;2023-05-25T07:33:06;4.75;;;2.13;;
11827;SDS011;5971;49.646;8.568;2023-05-25T07:36:08;5.45;;;2.13;;
11827;SDS011;5971;49.646;8.568;2023-05-25T07:39:10;7.05;;;2.55;;
11827;SDS011;5971;49.646;8.568;2023-05-25T07:42:14;6.57;;;2.35;;
11827;SDS011;5971;49.646;8.568;2023-05-25T07:45:21;6.28;;;2.28;;
11827;SDS011;5971;49.646;8.568;2023-05-25T07:48:22;6.18;;;2.50;;
11827;SDS011;5971;49.646;8.568;2023-05-25T07:51:24;6.85;;;2.50;;
11827;SDS011;5971;49.646;8.568;2023-05-25T07:54:27;4.82;;;1.95;;
11827;SDS011;5971;49.646;8.568;2023-05-25T07:57:28;4.22;;;2.38;;
11827;SDS011;5971;49.646;8.568;2023-05-25T08:00:29;6.75;;;2.20;;
11827;SDS011;5971;49.646;8.568;2023-05-25T08:03:31;5.32;;;2.47;;
11827;SDS011;5971;49.646;8.568;2023-05-25T08:06:48;5.25;;;2.17;;
11827;SDS011;5971;49.646;8.568;2023-05-25T08:09:50;8.95;;;2.97;;
11827;SDS011;5971;49.646;8.568;2023-05-25T08:12:51;6.90;;;2.38;;
11827;SDS011;5971;49.646;8.568;2023-05-25T08:15:52;5.72;;;2.78;;
11827;SDS011;5971;49.646;8.568;2023-05-25T08:18:54;5.72;;;2.65;;
11827;SDS011;5971;49.646;8.568;2023-05-25T08:21:55;6.35;;;2.40;;
11827;SDS011;5971;49.646;8.568;2023-05-25T08:24:57;6.13;;;2.50;;
11827;SDS011;5971;49.646;8.568;2023-05-25T08:27:58;6.60;;;2.42;;
11827;SDS011;5971;49.646;8.568;2023-05-25T08:30:59;4.95;;;2.75;;
11827;SDS011;5971;49.646;8.568;2023-05-25T08:34:01;5.57;;;2.13;;
11827;SDS011;5971;49.646;8.568;2023-05-25T08:37:02;6.85;;;2.78;;
11827;SDS011;5971;49.646;8.568;2023-05-25T08:40:05;4.07;;;2.25;;
11827;SDS011;5971;49.646;8.568;2023-05-25T08:43:08;5.85;;;2.45;;
11827;SDS011;5971;49.646;8.568;2023-05-25T08:46:09;6.32;;;2.92;;
11827;SDS011;5971;49.646;8.568;2023-05-25T08:49:11;3.60;;;2.20;;
11827;SDS011;5971;49.646;8.568;2023-05-25T08:52:13;7.93;;;2.58;;
11827;SDS011;5971;49.646;8.568;2023-05-25T08:55:15;4.85;;;2.20;;
11827;SDS011;5971;49.646;8.568;2023-05-25T08:58:19;6.13;;;2.10;;
11827;SDS011;5971;49.646;8.568;2023-05-25T09:01:24;6.63;;;2.33;;
11827;SDS011;5971;49.646;8.568;2023-05-25T09:04:27;6.25;;;2.40;;
11827;SDS011;5971;49.646;8.568;2023-05-25T09:07:30;6.97;;;2.45;;
11827;SDS011;5971;49.646;8.568;2023-05-25T09:10:32;5.13;;;2.92;;
11827;SDS011;5971;49.646;8.568;2023-05-25T09:13:34;5.15;;;2.10;;
11827;SDS011;5971;49.646;8.568;2023-05-25T09:16:36;5.30;;;2.33;;
11827;SDS011;5971;49.646;8.568;2023-05-25T09:19:37;5.78;;;2.53;;
11827;SDS011;5971;49.646;8.568;2023-05-25T09:22:39;5.97;;;2.67;;
11827;SDS011;5971;49.646;8.568;2023-05-25T09:25:41;5.45;;;2.53;;
11827;SDS011;5971;49.646;8.568;2023-05-25T09:28:45;5.72;;;2.92;;
11827;SDS011;5971;49.646;8.568;2023-05-25T09:31:47;5.65;;;2.53;;
11827;SDS011;5971;49.646;8.568;2023-05-25T09:34:49;6.43;;;2.45;;
11827;SDS011;5971;49.646;8.568;2023-05-25T09:37:51;4.90;;;2.45;;
11827;SDS011;5971;49.646;8.568;2023-05-25T09:40:55;4.90;;;2.47;;
11827;SDS011;5971;49.646;8.568;2023-05-25T09:43:56;5.65;;;2.80;;
11827;SDS011;5971;49.646;8.568;2023-05-25T09:47:10;6.07;;;2.28;;
11827;SDS011;5971;49.646;8.568;2023-05-25T09:50:13;5.90;;;2.60;;
11827;SDS011;5971;49.646;8.568;2023-05-25T09:53:15;4.72;;;2.25;;
11827;SDS011;5971;49.646;8.568;2023-05-25T09:56:16;6.03;;;2.85;;
11827;SDS011;5971;49.646;8.568;2023-05-25T09:59:18;5.70;;;2.60;;
11827;SDS011;5971;49.646;8.568;2023-05-25T10:02:19;4.55;;;2.20;;
11827;SDS011;5971;49.646;8.568;2023-05-25T10:05:21;4.57;;;2.33;;
11827;SDS011;5971;49.646;8.568;2023-05-25T10:08:22;6.55;;;2.30;;
11827;SDS011;5971;49.646;8.568;2023-05-25T10:11:45;4.40;;;2.50;;
11827;SDS011;5971;49.646;8.568;2023-05-25T10:14:48;5.53;;;2.28;;
11827;SDS011;5971;49.646;8.568;2023-05-25T10:17:54;5.97;;;2.40;;
11827;SDS011;5971;49.646;8.568;2023-05-25T10:21:02;5.15;;;2.25;;
11827;SDS011;5971;49.646;8.568;2023-05-25T10:24:16;5.07;;;2.13;;
11827;SDS011;5971;49.646;8.568;2023-05-25T10:27:22;5.43;;;2.10;;
11827;SDS011;5971;49.646;8.568;2023-05-25T10:30:28;5.43;;;2.30;;
11827;SDS011;5971;49.646;8.568;2023-05-25T10:33:30;4.63;;;2.15;;
11827;SDS011;5971;49.646;8.568;2023-05-25T10:36:32;4.88;;;2.10;;
11827;SDS011;5971;49.646;8.568;2023-05-25T10:39:35;6.10;;;2.50;;
11827;SDS011;5971;49.646;8.568;2023-05-25T10:42:36;4.55;;;2.30;;
11827;SDS011;5971;49.646;8.568;2023-05-25T10:45:38;4.82;;;2.40;;
11827;SDS011;5971;49.646;8.568;2023-05-25T10:48:45;7.15;;;2.40;;
11827;SDS011;5971;49.646;8.568;2023-05-25T10:51:47;4.43;;;2.15;;
11827;SDS011;5971;49.646;8.568;2023-05-25T10:55:00;5.38;;;2.28;;
11827;SDS011;5971;49.646;8.568;2023-05-25T10:58:05;5.35;;;3.50;;
11827;SDS011;5971;49.646;8.568;2023-05-25T11:01:08;6.93;;;2.80;;
11827;SDS011;5971;49.646;8.568;2023-05-25T11:07:13;5.15;;;2.60;;
11827;SDS011;5971;49.646;8.568;2023-05-25T11:10:16;5.25;;;2.17;;
11827;SDS011;5971;49.646;8.568;2023-05-25T11:16:31;5.57;;;2.85;;
11827;SDS011;5971;49.646;8.568;2023-05-25T11:19:49;4.38;;;2.58;;
11827;SDS011;5971;49.646;8.568;2023-05-25T11:22:52;4.85;;;2.47;;
11827;SDS011;5971;49.646;8.568;2023-05-25T11:25:54;4.50;;;2.58;;
11827;SDS011;5971;49.646;8.568;2023-05-25T11:29:14;4.47;;;2.42;;
11827;SDS011;5971;49.646;8.568;2023-05-25T11:32:15;4.53;;;2.55;;
11827;SDS011;5971;49.646;8.568;2023-05-25T11:35:17;4.47;;;2.22;;
11827;SDS011;5971;49.646;8.568;2023-05-25T11:38:18;3.85;;;2.33;;
11827;SDS011;5971;49.646;8.568;2023-05-25T11:41:21;4.15;;;2.58;;
11827;SDS011;5971;49.646;8.568;2023-05-25T11:44:27;4.78;;;2.55;;
11827;SDS011;5971;49.646;8.568;2023-05-25T11:47:29;3.97;;;2.40;;
11827;SDS011;5971;49.646;8.568;2023-05-25T11:50:33;5.63;;;2.50;;
11827;SDS011;5971;49.646;8.568;2023-05-25T11:53:39;4.57;;;2.90;;
11827;SDS011;5971;49.646;8.568;2023-05-25T11:56:41;6.50;;;2.60;;
11827;SDS011;5971;49.646;8.568;2023-05-25T11:59:46;5.32;;;2.33;;
11827;SDS011;5971;49.646;8.568;2023-05-25T12:02:49;5.28;;;2.53;;
11827;SDS011;5971;49.646;8.568;2023-05-25T12:05:50;4.50;;;2.28;;
11827;SDS011;5971;49.646;8.568;2023-05-25T12:08:52;5.13;;;2.40;;
11827;SDS011;5971;49.646;8.568;2023-05-25T12:11:53;4.40;;;2.33;;
11827;SDS011;5971;49.646;8.568;2023-05-25T12:14:55;3.83;;;2.30;;
11827;SDS011;5971;49.646;8.568;2023-05-25T12:17:59;4.70;;;2.33;;
11827;SDS011;5971;49.646;8.568;2023-05-25T12:21:00;4.13;;;2.30;;
11827;SDS011;5971;49.646;8.568;2023-05-25T12:24:02;4.65;;;2.53;;
11827;SDS011;5971;49.646;8.568;2023-05-25T12:27:09;3.53;;;2.25;;
11827;SDS011;5971;49.646;8.568;2023-05-25T12:30:16;4.05;;;2.40;;
11827;SDS011;5971;49.646;8.568;2023-05-25T12:33:17;4.72;;;3.05;;
11827;SDS011;5971;49.646;8.568;2023-05-25T12:36:37;4.32;;;2.63;;
11827;SDS011;5971;49.646;8.568;2023-05-25T12:39:39;5.30;;;2.55;;
11827;SDS011;5971;49.646;8.568;2023-05-25T12:42:41;4.78;;;2.88;;
11827;SDS011;5971;49.646;8.568;2023-05-25T12:45:42;3.80;;;2.60;;
11827;SDS011;5971;49.646;8.568;2023-05-25T12:48:43;4.18;;;2.30;;
11827;SDS011;5971;49.646;8.568;2023-05-25T12:51:45;4.15;;;2.50;;
11827;SDS011;5971;49.646;8.568;2023-05-25T12:54:47;5.13;;;2.58;;
11827;SDS011;5971;49.646;8.568;2023-05-25T12:57:50;4.43;;;2.40;;
11827;SDS011;5971;49.646;8.568;2023-05-25T13:00:52;4.20;;;2.70;;
11827;SDS011;5971;49.646;8.568;2023-05-25T13:03:54;4.35;;;2.63;;
11827;SDS011;5971;49.646;8.568;2023-05-25T13:06:55;4.95;;;3.20;;
11827;SDS011;5971;49.646;8.568;2023-05-25T13:09:57;3.72;;;2.33;;
11827;SDS011;5971;49.646;8.568;2023-05-25T13:12:58;4.95;;;2.90;;
11827;SDS011;5971;49.646;8.568;2023-05-25T13:15:59;4.75;;;2.60;;
11827;SDS011;5971;49.646;8.568;2023-05-25T13:19:01;4.22;;;2.38;;
11827;SDS011;5971;49.646;8.568;2023-05-25T13:22:02;4.72;;;2.70;;
11827;SDS011;5971;49.646;8.568;2023-05-25T13:25:04;3.70;;;2.50;;
11827;SDS011;5971;49.646;8.568;2023-05-25T13:28:05;5.55;;;2.90;;
11827;SDS011;5971;49.646;8.568;2023-05-25T13:31:07;6.05;;;3.28;;
11827;SDS011;5971;49.646;8.568;2023-05-25T13:34:08;4.93;;;2.95;;
11827;SDS011;5971;49.646;8.568;2023-05-25T13:37:09;5.25;;;2.65;;
11827;SDS011;5971;49.646;8.568;2023-05-25T13:40:11;4.13;;;2.67;;
11827;SDS011;5971;49.646;8.568;2023-05-25T13:43:12;3.63;;;2.47;;
11827;SDS011;5971;49.646;8.568;2023-05-25T13:46:13;4.32;;;2.42;;
11827;SDS011;5971;49.646;8.568;2023-05-25T13:49:34;3.85;;;2.50;;
11827;SDS011;5971;49.646;8.568;2023-05-25T13:52:35;4.20;;;2.72;;
11827;SDS011;5971;49.646;8.568;2023-05-25T13:55:37;5.57;;;2.80;;
11827;SDS011;5971;49.646;8.568;2023-05-25T13:58:41;4.88;;;2.72;;
11827;SDS011;5971;49.646;8.568;2023-05-25T14:01:45;4.30;;;3.33;;
11827;SDS011;5971;49.646;8.568;2023-05-25T14:04:47;3.60;;;2.53;;
11827;SDS011;5971;49.646;8.568;2023-05-25T14:07:48;4.55;;;2.72;;
11827;SDS011;5971;49.646;8.568;2023-05-25T14:10:50;4.43;;;2.75;;
11827;SDS011;5971;49.646;8.568;2023-05-25T14:13:51;4.50;;;2.83;;
11827;SDS011;5971;49.646;8.568;2023-05-25T14:16:52;4.30;;;2.65;;
11827;SDS011;5971;49.646;8.568;2023-05-25T14:19:54;4.60;;;2.80;;
11827;SDS011;5971;49.646;8.568;2023-05-25T14:22:55;3.95;;;2.35;;
11827;SDS011;5971;49.646;8.568;2023-05-25T14:25:57;4.82;;;2.70;;
11827;SDS011;5971;49.646;8.568;2023-05-25T14:28:58;5.68;;;2.72;;
11827;SDS011;5971;49.646;8.568;2023-05-25T14:31:59;5.65;;;2.90;;
11827;SDS011;5971;49.646;8.568;2023-05-25T14:35:01;4.03;;;2.63;;
11827;SDS011;5971;49.646;8.568;2023-05-25T14:38:02;4.45;;;2.60;;
11827;SDS011;5971;49.646;8.568;2023-05-25T14:41:04;5.88;;;2.80;;
11827;SDS011;5971;49.646;8.568;2023-05-25T14:44:05;4.20;;;2.50;;
11827;SDS011;5971;49.646;8.568;2023-05-25T14:47:07;5.15;;;2.88;;
11827;SDS011;5971;49.646;8.568;2023-05-25T14:50:08;4.05;;;2.45;;
11827;SDS011;5971;49.646;8.568;2023-05-25T14:53:10;3.83;;;2.53;;
11827;SDS011;5971;49.646;8.568;2023-05-25T14:56:11;4.35;;;2.72;;
11827;SDS011;5971;49.646;8.568;2023-05-25T14:59:12;4.40;;;2.47;;
11827;SDS011;5971;49.646;8.568;2023-05-25T15:02:14;4.25;;;2.42;;
11827;SDS011;5971;49.646;8.568;2023-05-25T15:05:16;3.92;;;2.85;;
11827;SDS011;5971;49.646;8.568;2023-05-25T15:08:17;4.72;;;2.78;;
11827;SDS011;5971;49.646;8.568;2023-05-25T15:11:18;5.95;;;4.10;;
11827;SDS011;5971;49.646;8.568;2023-05-25T15:14:20;5.40;;;2.67;;
11827;SDS011;5971;49.646;8.568;2023-05-25T15:17:21;4.93;;;2.70;;
11827;SDS011;5971;49.646;8.568;2023-05-25T15:20:22;3.85;;;2.63;;
11827;SDS011;5971;49.646;8.568;2023-05-25T15:23:24;3.70;;;2.28;;
11827;SDS011;5971;49.646;8.568;2023-05-25T15:26:25;3.97;;;2.30;;
11827;SDS011;5971;49.646;8.568;2023-05-25T15:29:26;5.07;;;2.40;;
11827;SDS011;5971;49.646;8.568;2023-05-25T15:32:28;5.07;;;2.80;;
11827;SDS011;5971;49.646;8.568;2023-05-25T15:35:29;4.28;;;2.70;;
11827;SDS011;5971;49.646;8.568;2023-05-25T15:38:32;5.78;;;2.40;;
11827;SDS011;5971;49.646;8.568;2023-05-25T15:41:33;4.50;;;3.20;;
11827;SDS011;5971;49.646;8.568;2023-05-25T15:44:35;4.38;;;2.53;;
11827;SDS011;5971;49.646;8.568;2023-05-25T15:47:36;5.10;;;2.50;;
11827;SDS011;5971;49.646;8.568;2023-05-25T15:50:37;3.90;;;2.55;;
11827;SDS011;5971;49.646;8.568;2023-05-25T15:53:39;4.05;;;2.65;;
11827;SDS011;5971;49.646;8.568;2023-05-25T15:56:40;3.97;;;2.47;;
11827;SDS011;5971;49.646;8.568;2023-05-25T15:59:42;4.57;;;2.70;;
11827;SDS011;5971;49.646;8.568;2023-05-25T16:02:43;4.35;;;2.92;;
11827;SDS011;5971;49.646;8.568;2023-05-25T16:05:45;4.55;;;2.88;;
11827;SDS011;5971;49.646;8.568;2023-05-25T16:08:46;4.57;;;2.90;;
11827;SDS011;5971;49.646;8.568;2023-05-25T16:11:47;6.53;;;3.10;;
11827;SDS011;5971;49.646;8.568;2023-05-25T16:14:49;5.78;;;2.80;;
11827;SDS011;5971;49.646;8.568;2023-05-25T16:17:50;5.10;;;3.30;;
11827;SDS011;5971;49.646;8.568;2023-05-25T16:20:52;5.53;;;3.25;;
11827;SDS011;5971;49.646;8.568;2023-05-25T16:23:57;5.38;;;3.30;;
11827;SDS011;5971;49.646;8.568;2023-05-25T16:26:58;6.18;;;3.00;;
11827;SDS011;5971;49.646;8.568;2023-05-25T16:30:00;5.03;;;2.97;;
11827;SDS011;5971;49.646;8.568;2023-05-25T16:33:01;6.30;;;3.40;;
11827;SDS011;5971;49.646;8.568;2023-05-25T16:36:03;4.85;;;3.20;;
11827;SDS011;5971;49.646;8.568;2023-05-25T16:39:04;6.38;;;3.40;;
11827;SDS011;5971;49.646;8.568;2023-05-25T16:42:06;7.00;;;3.40;;
11827;SDS011;5971;49.646;8.568;2023-05-25T16:45:07;5.32;;;3.22;;
11827;SDS011;5971;49.646;8.568;2023-05-25T16:48:09;6.40;;;3.67;;
11827;SDS011;5971;49.646;8.568;2023-05-25T16:51:10;6.70;;;3.65;;
11827;SDS011;5971;49.646;8.568;2023-05-25T16:54:15;5.82;;;3.20;;
11827;SDS011;5971;49.646;8.568;2023-05-25T16:57:16;5.43;;;3.40;;
11827;SDS011;5971;49.646;8.568;2023-05-25T17:00:18;6.15;;;3.38;;
11827;SDS011;5971;49.646;8.568;2023-05-25T17:03:19;7.70;;;4.20;;
11827;SDS011;5971;49.646;8.568;2023-05-25T17:06:21;5.53;;;3.17;;
11827;SDS011;5971;49.646;8.568;2023-05-25T17:09:22;6.10;;;3.40;;
11827;SDS011;5971;49.646;8.568;2023-05-25T17:12:25;5.15;;;3.17;;
11827;SDS011;5971;49.646;8.568;2023-05-25T17:15:26;6.00;;;4.03;;
11827;SDS011;5971;49.646;8.568;2023-05-25T17:18:28;7.32;;;3.65;;
11827;SDS011;5971;49.646;8.568;2023-05-25T17:21:29;12.38;;;4.20;;
11827;SDS011;5971;49.646;8.568;2023-05-25T17:24:30;7.57;;;3.33;;
11827;SDS011;5971;49.646;8.568;2023-05-25T17:27:32;7.63;;;3.80;;
11827;SDS011;5971;49.646;8.568;2023-05-25T17:30:33;6.28;;;3.40;;
11827;SDS011;5971;49.646;8.568;2023-05-25T17:33:35;7.70;;;3.85;;
11827;SDS011;5971;49.646;8.568;2023-05-25T17:36:36;4.95;;;3.38;;
11827;SDS011;5971;49.646;8.568;2023-05-25T17:39:37;8.20;;;3.65;;
11827;SDS011;5971;49.646;8.568;2023-05-25T17:42:39;5.65;;;3.20;;
11827;SDS011;5971;49.646;8.568;2023-05-25T17:45:40;7.15;;;3.45;;
11827;SDS011;5971;49.646;8.568;2023-05-25T17:48:42;8.15;;;4.60;;
11827;SDS011;5971;49.646;8.568;2023-05-25T17:51:43;6.80;;;4.38;;
11827;SDS011;5971;49.646;8.568;2023-05-25T17:54:44;7.80;;;3.80;;
11827;SDS011;5971;49.646;8.568;2023-05-25T17:57:46;6.57;;;3.60;;
11827;SDS011;5971;49.646;8.568;2023-05-25T18:00:47;7.05;;;3.95;;
11827;SDS011;5971;49.646;8.568;2023-05-25T18:03:49;8.75;;;5.10;;
11827;SDS011;5971;49.646;8.568;2023-05-25T18:06:51;9.65;;;4.63;;
11827;SDS011;5971;49.646;8.568;2023-05-25T18:09:52;7.82;;;4.07;;
11827;SDS011;5971;49.646;8.568;2023-05-25T18:12:54;9.63;;;3.85;;
11827;SDS011;5971;49.646;8.568;2023-05-25T18:15:55;9.88;;;4.18;;
11827;SDS011;5971;49.646;8.568;2023-05-25T18:18:57;8.45;;;4.20;;
11827;SDS011;5971;49.646;8.568;2023-05-25T18:21:58;6.60;;;4.30;;
11827;SDS011;5971;49.646;8.568;2023-05-25T18:24:59;6.78;;;3.97;;
11827;SDS011;5971;49.646;8.568;2023-05-25T18:28:01;7.45;;;3.90;;
11827;SDS011;5971;49.646;8.568;2023-05-25T18:31:02;8.98;;;3.90;;
11827;SDS011;5971;49.646;8.568;2023-05-25T18:34:04;7.72;;;4.60;;
11827;SDS011;5971;49.646;8.568;2023-05-25T18:37:06;8.52;;;4.43;;
11827;SDS011;5971;49.646;8.568;2023-05-25T18:40:08;7.75;;;4.07;;